Havre City County Airport
KHVR : now visible

Airfield :











YOU CAN JOIN US ON...

 
LOGIN :

Register | Disclaimer

   EN    FR    IT 

 









Legend :    VFR   Marginal VFR   IFR   Intensive IFR   Very Intensive IFR
Visi :
Ceiling :
>= 8 km
>= 3000ft
5 to 8 km
1000 to 3000 ft
1500m to 5 km
500 to 1000 ft
800 to 1500m
200 to 500 ft
< 800m
< 200 ft
Symbols :   Thunderstorms  Fog  Heavy snow  Heavy precipitations  Wind > 20 kt






- Airport Elevation : 2591 ft


KHVR - Havre City County

CURRENT METAR :
  • 291753Z AUTO 31013KT 10SM FEW025 M18/M23 A3047 RMK AO2 SLP387 T11781233 11172 21206 51008 $

EXPIRED METARs :
  • 291653Z AUTO 25009KT 10SM CLR M20/M23 A3047 RMK AO2 SLP388 T12001233 $
  • 291553Z AUTO 25007KT 10SM CLR M21/M24 A3046 RMK AO2 SLP385 T12061239 $

TAF KHVR
Valid from the 29 at 18:00 until the 30 at 18:00 UTC


291740Z 2918/3018 24009KT P6SM SCT130
FM300800 22017G29KT P6SM BKN130
FM301500 26012KT P6SM BKN050
KZLC FIR / North America



MET'MAP, your aeronautical weather chart ! - Copyright ORBIFLY December 2007 - Disclaimer

ORBIFLY MET'MAP TEAM :

Programming & Development : Alexandra Zaïnal
Original concept : Baudouin d'Aumeries
Technical & hardware support : Manuel Goepfert
Assistance : Marc-Olivier Méhu




SOURCES & CREDITS :

   NOAA       Earth
Advisory